sensor_id;sensor_type;location;lat;lon;timestamp;P1;durP1;ratioP1;P2;durP2;ratioP2
68680;SDS011;55836;49.858;6.756;2023-04-06T00:01:01;5.37;;;3.43;;
68680;SDS011;55836;49.858;6.756;2023-04-06T00:03:27;4.37;;;3.60;;
68680;SDS011;55836;49.858;6.756;2023-04-06T00:05:53;3.57;;;2.97;;
68680;SDS011;55836;49.858;6.756;2023-04-06T00:08:20;8.90;;;3.60;;
68680;SDS011;55836;49.858;6.756;2023-04-06T00:10:48;5.23;;;3.70;;
68680;SDS011;55836;49.858;6.756;2023-04-06T00:13:14;5.17;;;3.30;;
68680;SDS011;55836;49.858;6.756;2023-04-06T00:15:40;6.93;;;3.53;;
68680;SDS011;55836;49.858;6.756;2023-04-06T00:18:06;4.47;;;3.37;;
68680;SDS011;55836;49.858;6.756;2023-04-06T00:20:32;3.97;;;3.57;;
68680;SDS011;55836;49.858;6.756;2023-04-06T00:22:58;7.27;;;4.07;;
68680;SDS011;55836;49.858;6.756;2023-04-06T00:25:25;4.83;;;3.50;;
68680;SDS011;55836;49.858;6.756;2023-04-06T00:27:51;5.00;;;3.77;;
68680;SDS011;55836;49.858;6.756;2023-04-06T00:30:17;5.93;;;3.50;;
68680;SDS011;55836;49.858;6.756;2023-04-06T00:32:43;4.40;;;3.47;;
68680;SDS011;55836;49.858;6.756;2023-04-06T00:35:09;5.73;;;3.40;;
68680;SDS011;55836;49.858;6.756;2023-04-06T00:37:35;4.03;;;3.30;;
68680;SDS011;55836;49.858;6.756;2023-04-06T00:40:02;5.00;;;3.33;;
68680;SDS011;55836;49.858;6.756;2023-04-06T00:42:28;4.77;;;3.53;;
68680;SDS011;55836;49.858;6.756;2023-04-06T00:44:55;6.70;;;4.03;;
68680;SDS011;55836;49.858;6.756;2023-04-06T00:47:22;5.27;;;4.17;;
68680;SDS011;55836;49.858;6.756;2023-04-06T00:49:48;6.13;;;5.40;;
68680;SDS011;55836;49.858;6.756;2023-04-06T00:52:15;6.20;;;3.70;;
68680;SDS011;55836;49.858;6.756;2023-04-06T00:54:41;4.20;;;3.73;;
68680;SDS011;55836;49.858;6.756;2023-04-06T00:57:07;4.67;;;3.60;;
68680;SDS011;55836;49.858;6.756;2023-04-06T00:59:33;7.93;;;4.07;;
68680;SDS011;55836;49.858;6.756;2023-04-06T01:01:59;4.20;;;3.20;;
68680;SDS011;55836;49.858;6.756;2023-04-06T01:04:26;6.67;;;4.80;;
68680;SDS011;55836;49.858;6.756;2023-04-06T01:06:52;5.27;;;3.53;;
68680;SDS011;55836;49.858;6.756;2023-04-06T01:09:18;4.87;;;3.57;;
68680;SDS011;55836;49.858;6.756;2023-04-06T01:11:44;5.77;;;3.67;;
68680;SDS011;55836;49.858;6.756;2023-04-06T01:14:10;6.53;;;3.83;;
68680;SDS011;55836;49.858;6.756;2023-04-06T01:16:37;4.77;;;3.73;;
68680;SDS011;55836;49.858;6.756;2023-04-06T01:19:09;5.93;;;3.97;;
68680;SDS011;55836;49.858;6.756;2023-04-06T01:21:39;4.20;;;3.80;;
68680;SDS011;55836;49.858;6.756;2023-04-06T01:24:05;5.13;;;3.87;;
68680;SDS011;55836;49.858;6.756;2023-04-06T01:26:32;5.80;;;4.03;;
68680;SDS011;55836;49.858;6.756;2023-04-06T01:28:58;8.30;;;4.77;;
68680;SDS011;55836;49.858;6.756;2023-04-06T01:31:24;4.67;;;3.30;;
68680;SDS011;55836;49.858;6.756;2023-04-06T01:33:51;6.10;;;4.20;;
68680;SDS011;55836;49.858;6.756;2023-04-06T01:36:17;7.20;;;4.10;;
68680;SDS011;55836;49.858;6.756;2023-04-06T01:38:43;5.23;;;4.17;;
68680;SDS011;55836;49.858;6.756;2023-04-06T01:41:09;7.40;;;3.80;;
68680;SDS011;55836;49.858;6.756;2023-04-06T01:43:35;5.67;;;4.33;;
68680;SDS011;55836;49.858;6.756;2023-04-06T01:46:01;4.30;;;3.67;;
68680;SDS011;55836;49.858;6.756;2023-04-06T01:48:27;5.27;;;4.13;;
68680;SDS011;55836;49.858;6.756;2023-04-06T01:50:54;5.73;;;3.60;;
68680;SDS011;55836;49.858;6.756;2023-04-06T01:53:20;6.30;;;4.03;;
68680;SDS011;55836;49.858;6.756;2023-04-06T01:55:46;4.73;;;3.63;;
68680;SDS011;55836;49.858;6.756;2023-04-06T01:58:13;5.50;;;3.77;;
68680;SDS011;55836;49.858;6.756;2023-04-06T02:00:39;6.03;;;3.73;;
68680;SDS011;55836;49.858;6.756;2023-04-06T02:03:06;4.23;;;3.80;;
68680;SDS011;55836;49.858;6.756;2023-04-06T02:05:33;6.30;;;4.30;;
68680;SDS011;55836;49.858;6.756;2023-04-06T02:08:06;5.23;;;3.80;;
68680;SDS011;55836;49.858;6.756;2023-04-06T02:10:35;4.70;;;4.17;;
68680;SDS011;55836;49.858;6.756;2023-04-06T02:13:01;4.97;;;4.20;;
68680;SDS011;55836;49.858;6.756;2023-04-06T02:15:27;5.43;;;4.30;;
68680;SDS011;55836;49.858;6.756;2023-04-06T02:17:53;9.23;;;4.30;;
68680;SDS011;55836;49.858;6.756;2023-04-06T02:20:20;6.17;;;4.37;;
68680;SDS011;55836;49.858;6.756;2023-04-06T02:22:46;6.07;;;4.00;;
68680;SDS011;55836;49.858;6.756;2023-04-06T02:25:12;6.50;;;3.57;;
68680;SDS011;55836;49.858;6.756;2023-04-06T02:27:38;6.37;;;3.90;;
68680;SDS011;55836;49.858;6.756;2023-04-06T02:30:04;9.87;;;4.20;;
68680;SDS011;55836;49.858;6.756;2023-04-06T02:32:30;6.27;;;4.20;;
68680;SDS011;55836;49.858;6.756;2023-04-06T02:34:56;5.73;;;4.03;;
68680;SDS011;55836;49.858;6.756;2023-04-06T02:37:22;5.23;;;4.33;;
68680;SDS011;55836;49.858;6.756;2023-04-06T02:39:49;4.30;;;3.60;;
68680;SDS011;55836;49.858;6.756;2023-04-06T02:42:15;9.43;;;5.03;;
68680;SDS011;55836;49.858;6.756;2023-04-06T02:44:42;10.13;;;4.87;;
68680;SDS011;55836;49.858;6.756;2023-04-06T02:47:08;5.47;;;3.97;;
68680;SDS011;55836;49.858;6.756;2023-04-06T02:49:34;5.03;;;4.03;;
68680;SDS011;55836;49.858;6.756;2023-04-06T02:52:01;6.83;;;3.80;;
68680;SDS011;55836;49.858;6.756;2023-04-06T02:54:27;5.03;;;4.03;;
68680;SDS011;55836;49.858;6.756;2023-04-06T02:56:54;8.20;;;4.90;;
68680;SDS011;55836;49.858;6.756;2023-04-06T02:59:20;6.33;;;4.70;;
68680;SDS011;55836;49.858;6.756;2023-04-06T03:01:46;6.80;;;4.83;;
68680;SDS011;55836;49.858;6.756;2023-04-06T03:04:12;5.17;;;3.67;;
68680;SDS011;55836;49.858;6.756;2023-04-06T03:06:38;8.87;;;4.20;;
68680;SDS011;55836;49.858;6.756;2023-04-06T03:09:05;8.43;;;4.87;;
68680;SDS011;55836;49.858;6.756;2023-04-06T03:11:31;5.33;;;3.90;;
68680;SDS011;55836;49.858;6.756;2023-04-06T03:13:57;5.73;;;4.30;;
68680;SDS011;55836;49.858;6.756;2023-04-06T03:16:24;7.93;;;4.70;;
68680;SDS011;55836;49.858;6.756;2023-04-06T03:18:50;5.60;;;4.50;;
68680;SDS011;55836;49.858;6.756;2023-04-06T03:21:16;7.13;;;4.77;;
68680;SDS011;55836;49.858;6.756;2023-04-06T03:23:42;6.60;;;5.10;;
68680;SDS011;55836;49.858;6.756;2023-04-06T03:26:08;4.97;;;4.07;;
68680;SDS011;55836;49.858;6.756;2023-04-06T03:28:34;6.37;;;4.17;;
68680;SDS011;55836;49.858;6.756;2023-04-06T03:31:01;6.37;;;4.00;;
68680;SDS011;55836;49.858;6.756;2023-04-06T03:33:27;7.57;;;4.33;;
68680;SDS011;55836;49.858;6.756;2023-04-06T03:35:53;4.73;;;3.50;;
68680;SDS011;55836;49.858;6.756;2023-04-06T03:38:20;6.37;;;4.57;;
68680;SDS011;55836;49.858;6.756;2023-04-06T03:40:46;10.10;;;5.07;;
68680;SDS011;55836;49.858;6.756;2023-04-06T03:43:12;7.53;;;4.93;;
68680;SDS011;55836;49.858;6.756;2023-04-06T03:45:38;6.33;;;5.20;;
68680;SDS011;55836;49.858;6.756;2023-04-06T03:48:04;6.33;;;4.73;;
68680;SDS011;55836;49.858;6.756;2023-04-06T03:50:30;7.37;;;4.60;;
68680;SDS011;55836;49.858;6.756;2023-04-06T03:52:56;8.50;;;5.33;;
68680;SDS011;55836;49.858;6.756;2023-04-06T03:55:23;6.67;;;4.07;;
68680;SDS011;55836;49.858;6.756;2023-04-06T03:57:49;4.47;;;4.07;;
68680;SDS011;55836;49.858;6.756;2023-04-06T04:00:15;5.57;;;4.50;;
68680;SDS011;55836;49.858;6.756;2023-04-06T04:02:41;5.17;;;4.10;;
68680;SDS011;55836;49.858;6.756;2023-04-06T04:05:07;6.57;;;4.97;;
68680;SDS011;55836;49.858;6.756;2023-04-06T04:07:33;6.80;;;4.33;;
68680;SDS011;55836;49.858;6.756;2023-04-06T04:09:59;5.70;;;4.40;;
68680;SDS011;55836;49.858;6.756;2023-04-06T04:12:25;6.47;;;4.40;;
68680;SDS011;55836;49.858;6.756;2023-04-06T04:14:51;6.07;;;4.40;;
68680;SDS011;55836;49.858;6.756;2023-04-06T04:17:17;6.47;;;5.07;;
68680;SDS011;55836;49.858;6.756;2023-04-06T04:19:43;7.83;;;5.10;;
68680;SDS011;55836;49.858;6.756;2023-04-06T04:22:09;6.40;;;4.80;;
68680;SDS011;55836;49.858;6.756;2023-04-06T04:24:36;8.33;;;5.13;;
68680;SDS011;55836;49.858;6.756;2023-04-06T04:27:02;5.97;;;5.30;;
68680;SDS011;55836;49.858;6.756;2023-04-06T04:29:28;6.20;;;4.87;;
68680;SDS011;55836;49.858;6.756;2023-04-06T04:31:54;7.63;;;4.93;;
68680;SDS011;55836;49.858;6.756;2023-04-06T04:34:20;6.50;;;4.87;;
68680;SDS011;55836;49.858;6.756;2023-04-06T04:36:48;6.70;;;4.80;;
68680;SDS011;55836;49.858;6.756;2023-04-06T04:39:15;6.90;;;5.30;;
68680;SDS011;55836;49.858;6.756;2023-04-06T04:41:41;8.27;;;5.23;;
68680;SDS011;55836;49.858;6.756;2023-04-06T04:44:07;6.97;;;5.20;;
68680;SDS011;55836;49.858;6.756;2023-04-06T04:46:33;6.57;;;5.10;;
68680;SDS011;55836;49.858;6.756;2023-04-06T04:48:59;8.27;;;4.80;;
68680;SDS011;55836;49.858;6.756;2023-04-06T04:51:25;6.30;;;5.03;;
68680;SDS011;55836;49.858;6.756;2023-04-06T04:53:51;7.57;;;5.53;;
68680;SDS011;55836;49.858;6.756;2023-04-06T04:56:17;6.97;;;5.00;;
68680;SDS011;55836;49.858;6.756;2023-04-06T04:58:43;5.93;;;5.13;;
68680;SDS011;55836;49.858;6.756;2023-04-06T05:01:09;10.27;;;6.30;;
68680;SDS011;55836;49.858;6.756;2023-04-06T05:03:35;11.73;;;6.37;;
68680;SDS011;55836;49.858;6.756;2023-04-06T05:06:04;8.77;;;6.20;;
68680;SDS011;55836;49.858;6.756;2023-04-06T05:08:30;9.63;;;6.43;;
68680;SDS011;55836;49.858;6.756;2023-04-06T05:10:56;7.80;;;5.13;;
68680;SDS011;55836;49.858;6.756;2023-04-06T05:13:22;7.37;;;5.67;;
68680;SDS011;55836;49.858;6.756;2023-04-06T05:15:48;8.13;;;6.00;;
68680;SDS011;55836;49.858;6.756;2023-04-06T05:18:14;9.80;;;5.30;;
68680;SDS011;55836;49.858;6.756;2023-04-06T05:20:41;9.43;;;5.77;;
68680;SDS011;55836;49.858;6.756;2023-04-06T05:23:08;9.03;;;5.97;;
68680;SDS011;55836;49.858;6.756;2023-04-06T05:25:34;9.33;;;6.20;;
68680;SDS011;55836;49.858;6.756;2023-04-06T05:28:00;6.77;;;5.00;;
68680;SDS011;55836;49.858;6.756;2023-04-06T05:30:26;6.50;;;5.10;;
68680;SDS011;55836;49.858;6.756;2023-04-06T05:32:52;7.70;;;5.43;;
68680;SDS011;55836;49.858;6.756;2023-04-06T05:35:18;8.83;;;5.53;;
68680;SDS011;55836;49.858;6.756;2023-04-06T05:37:45;8.10;;;5.83;;
68680;SDS011;55836;49.858;6.756;2023-04-06T05:40:11;8.27;;;6.30;;
68680;SDS011;55836;49.858;6.756;2023-04-06T05:42:38;8.90;;;5.93;;
68680;SDS011;55836;49.858;6.756;2023-04-06T05:45:05;8.57;;;5.70;;
68680;SDS011;55836;49.858;6.756;2023-04-06T05:47:31;9.93;;;6.20;;
68680;SDS011;55836;49.858;6.756;2023-04-06T05:49:57;8.50;;;6.37;;
68680;SDS011;55836;49.858;6.756;2023-04-06T05:52:23;8.13;;;5.67;;
68680;SDS011;55836;49.858;6.756;2023-04-06T05:54:49;10.67;;;6.13;;
68680;SDS011;55836;49.858;6.756;2023-04-06T05:57:16;8.53;;;5.60;;
68680;SDS011;55836;49.858;6.756;2023-04-06T05:59:42;9.47;;;5.60;;
68680;SDS011;55836;49.858;6.756;2023-04-06T06:02:08;9.63;;;6.77;;
68680;SDS011;55836;49.858;6.756;2023-04-06T06:04:34;8.03;;;5.83;;
68680;SDS011;55836;49.858;6.756;2023-04-06T06:07:00;7.70;;;6.00;;
68680;SDS011;55836;49.858;6.756;2023-04-06T06:09:26;9.43;;;6.37;;
68680;SDS011;55836;49.858;6.756;2023-04-06T06:11:52;8.30;;;6.33;;
68680;SDS011;55836;49.858;6.756;2023-04-06T06:14:18;9.73;;;6.40;;
68680;SDS011;55836;49.858;6.756;2023-04-06T06:16:45;14.23;;;6.53;;
68680;SDS011;55836;49.858;6.756;2023-04-06T06:19:11;9.40;;;6.17;;
68680;SDS011;55836;49.858;6.756;2023-04-06T06:21:37;13.73;;;7.47;;
68680;SDS011;55836;49.858;6.756;2023-04-06T06:24:03;11.30;;;7.03;;
68680;SDS011;55836;49.858;6.756;2023-04-06T06:26:29;10.27;;;7.67;;
68680;SDS011;55836;49.858;6.756;2023-04-06T06:28:56;15.20;;;9.10;;
68680;SDS011;55836;49.858;6.756;2023-04-06T06:31:22;14.87;;;8.67;;
68680;SDS011;55836;49.858;6.756;2023-04-06T06:33:49;11.33;;;8.07;;
68680;SDS011;55836;49.858;6.756;2023-04-06T06:36:19;10.60;;;7.07;;
68680;SDS011;55836;49.858;6.756;2023-04-06T06:38:45;8.90;;;7.40;;
68680;SDS011;55836;49.858;6.756;2023-04-06T06:41:11;9.37;;;7.17;;
68680;SDS011;55836;49.858;6.756;2023-04-06T06:43:37;8.60;;;7.00;;
68680;SDS011;55836;49.858;6.756;2023-04-06T06:46:03;8.57;;;7.00;;
68680;SDS011;55836;49.858;6.756;2023-04-06T06:48:30;10.53;;;7.60;;
68680;SDS011;55836;49.858;6.756;2023-04-06T06:50:56;9.50;;;6.87;;
68680;SDS011;55836;49.858;6.756;2023-04-06T06:53:23;11.63;;;7.77;;
68680;SDS011;55836;49.858;6.756;2023-04-06T06:55:49;10.47;;;7.40;;
68680;SDS011;55836;49.858;6.756;2023-04-06T06:58:17;14.17;;;6.87;;
68680;SDS011;55836;49.858;6.756;2023-04-06T07:00:45;10.93;;;7.60;;
68680;SDS011;55836;49.858;6.756;2023-04-06T07:03:11;10.53;;;7.37;;
68680;SDS011;55836;49.858;6.756;2023-04-06T07:05:37;11.47;;;7.07;;
68680;SDS011;55836;49.858;6.756;2023-04-06T07:08:03;12.40;;;8.70;;
68680;SDS011;55836;49.858;6.756;2023-04-06T07:10:29;10.90;;;8.57;;
68680;SDS011;55836;49.858;6.756;2023-04-06T07:12:55;9.97;;;7.10;;
68680;SDS011;55836;49.858;6.756;2023-04-06T07:15:21;9.63;;;7.60;;
68680;SDS011;55836;49.858;6.756;2023-04-06T07:17:48;11.10;;;8.37;;
68680;SDS011;55836;49.858;6.756;2023-04-06T07:20:14;8.87;;;6.60;;
68680;SDS011;55836;49.858;6.756;2023-04-06T07:22:42;9.53;;;6.90;;
68680;SDS011;55836;49.858;6.756;2023-04-06T07:25:09;11.43;;;7.20;;
68680;SDS011;55836;49.858;6.756;2023-04-06T07:27:35;10.53;;;7.00;;
68680;SDS011;55836;49.858;6.756;2023-04-06T07:30:02;10.27;;;7.80;;
68680;SDS011;55836;49.858;6.756;2023-04-06T07:32:28;9.90;;;6.83;;
68680;SDS011;55836;49.858;6.756;2023-04-06T07:34:55;9.57;;;7.13;;
68680;SDS011;55836;49.858;6.756;2023-04-06T07:37:21;10.40;;;8.10;;
68680;SDS011;55836;49.858;6.756;2023-04-06T07:39:47;12.50;;;7.77;;
68680;SDS011;55836;49.858;6.756;2023-04-06T07:42:13;7.87;;;6.60;;
68680;SDS011;55836;49.858;6.756;2023-04-06T07:44:39;10.73;;;8.37;;
68680;SDS011;55836;49.858;6.756;2023-04-06T07:47:05;12.70;;;8.63;;
68680;SDS011;55836;49.858;6.756;2023-04-06T07:49:31;10.07;;;7.70;;
68680;SDS011;55836;49.858;6.756;2023-04-06T07:51:58;12.07;;;7.40;;
68680;SDS011;55836;49.858;6.756;2023-04-06T07:54:24;9.53;;;7.67;;
68680;SDS011;55836;49.858;6.756;2023-04-06T07:56:50;9.27;;;7.30;;
68680;SDS011;55836;49.858;6.756;2023-04-06T07:59:16;12.73;;;8.40;;
68680;SDS011;55836;49.858;6.756;2023-04-06T08:01:42;10.83;;;8.33;;
68680;SDS011;55836;49.858;6.756;2023-04-06T08:04:08;11.93;;;8.10;;
68680;SDS011;55836;49.858;6.756;2023-04-06T08:06:34;10.33;;;7.60;;
68680;SDS011;55836;49.858;6.756;2023-04-06T08:09:01;10.47;;;7.80;;
68680;SDS011;55836;49.858;6.756;2023-04-06T08:11:28;10.77;;;7.53;;
68680;SDS011;55836;49.858;6.756;2023-04-06T08:13:54;10.93;;;7.73;;
68680;SDS011;55836;49.858;6.756;2023-04-06T08:16:23;11.57;;;8.23;;
68680;SDS011;55836;49.858;6.756;2023-04-06T08:18:49;10.00;;;7.63;;
68680;SDS011;55836;49.858;6.756;2023-04-06T08:21:15;10.13;;;7.17;;
68680;SDS011;55836;49.858;6.756;2023-04-06T08:23:41;9.43;;;7.53;;
68680;SDS011;55836;49.858;6.756;2023-04-06T08:26:07;10.40;;;8.20;;
68680;SDS011;55836;49.858;6.756;2023-04-06T08:28:34;9.87;;;8.50;;
68680;SDS011;55836;49.858;6.756;2023-04-06T08:31:04;14.13;;;8.53;;
68680;SDS011;55836;49.858;6.756;2023-04-06T08:33:31;13.60;;;8.70;;
68680;SDS011;55836;49.858;6.756;2023-04-06T08:36:05;14.13;;;8.53;;
68680;SDS011;55836;49.858;6.756;2023-04-06T08:38:31;12.53;;;8.67;;
68680;SDS011;55836;49.858;6.756;2023-04-06T08:40:58;10.87;;;7.70;;
68680;SDS011;55836;49.858;6.756;2023-04-06T08:43:24;16.67;;;8.53;;
68680;SDS011;55836;49.858;6.756;2023-04-06T08:45:51;11.10;;;7.47;;
68680;SDS011;55836;49.858;6.756;2023-04-06T08:48:17;12.87;;;8.43;;
68680;SDS011;55836;49.858;6.756;2023-04-06T08:50:44;12.67;;;8.10;;
68680;SDS011;55836;49.858;6.756;2023-04-06T08:53:10;13.63;;;8.30;;
68680;SDS011;55836;49.858;6.756;2023-04-06T08:55:36;11.13;;;7.90;;
68680;SDS011;55836;49.858;6.756;2023-04-06T08:58:03;11.53;;;8.03;;
68680;SDS011;55836;49.858;6.756;2023-04-06T09:00:29;11.07;;;8.33;;
68680;SDS011;55836;49.858;6.756;2023-04-06T09:02:56;12.40;;;8.13;;
68680;SDS011;55836;49.858;6.756;2023-04-06T09:05:23;10.77;;;8.20;;
68680;SDS011;55836;49.858;6.756;2023-04-06T09:07:49;17.90;;;8.87;;
68680;SDS011;55836;49.858;6.756;2023-04-06T09:10:15;16.07;;;9.30;;
68680;SDS011;55836;49.858;6.756;2023-04-06T09:12:42;14.33;;;9.20;;
68680;SDS011;55836;49.858;6.756;2023-04-06T09:15:17;13.80;;;8.63;;
68680;SDS011;55836;49.858;6.756;2023-04-06T09:17:44;15.40;;;9.17;;
68680;SDS011;55836;49.858;6.756;2023-04-06T09:20:11;13.40;;;8.73;;
68680;SDS011;55836;49.858;6.756;2023-04-06T09:22:38;18.67;;;8.67;;
68680;SDS011;55836;49.858;6.756;2023-04-06T09:25:04;13.47;;;8.63;;
68680;SDS011;55836;49.858;6.756;2023-04-06T09:27:37;13.40;;;7.60;;
68680;SDS011;55836;49.858;6.756;2023-04-06T09:30:04;13.77;;;8.60;;
68680;SDS011;55836;49.858;6.756;2023-04-06T09:32:31;12.87;;;7.63;;
68680;SDS011;55836;49.858;6.756;2023-04-06T09:35:09;13.43;;;7.70;;
68680;SDS011;55836;49.858;6.756;2023-04-06T09:37:35;11.73;;;7.60;;
68680;SDS011;55836;49.858;6.756;2023-04-06T09:40:05;13.70;;;8.77;;
68680;SDS011;55836;49.858;6.756;2023-04-06T09:42:32;11.20;;;7.20;;
68680;SDS011;55836;49.858;6.756;2023-04-06T09:44:59;12.43;;;7.87;;
68680;SDS011;55836;49.858;6.756;2023-04-06T09:47:25;14.10;;;7.53;;
68680;SDS011;55836;49.858;6.756;2023-04-06T09:49:53;13.87;;;7.07;;
68680;SDS011;55836;49.858;6.756;2023-04-06T09:52:21;9.10;;;6.60;;
68680;SDS011;55836;49.858;6.756;2023-04-06T09:54:50;13.30;;;7.53;;
68680;SDS011;55836;49.858;6.756;2023-04-06T10:05:02;13.43;;;7.33;;
68680;SDS011;55836;49.858;6.756;2023-04-06T10:07:31;11.73;;;7.73;;
68680;SDS011;55836;49.858;6.756;2023-04-06T10:09:57;13.40;;;8.03;;
68680;SDS011;55836;49.858;6.756;2023-04-06T10:12:25;12.23;;;7.93;;
68680;SDS011;55836;49.858;6.756;2023-04-06T10:14:51;11.70;;;7.93;;
68680;SDS011;55836;49.858;6.756;2023-04-06T10:17:17;15.60;;;8.97;;
68680;SDS011;55836;49.858;6.756;2023-04-06T10:19:51;14.23;;;8.33;;
68680;SDS011;55836;49.858;6.756;2023-04-06T10:22:29;12.43;;;8.13;;
68680;SDS011;55836;49.858;6.756;2023-04-06T10:24:58;14.33;;;8.37;;
68680;SDS011;55836;49.858;6.756;2023-04-06T10:27:27;15.13;;;8.40;;
68680;SDS011;55836;49.858;6.756;2023-04-06T10:29:54;12.13;;;7.23;;
68680;SDS011;55836;49.858;6.756;2023-04-06T10:32:35;11.97;;;7.77;;
68680;SDS011;55836;49.858;6.756;2023-04-06T10:35:08;13.83;;;7.80;;
68680;SDS011;55836;49.858;6.756;2023-04-06T10:37:47;12.30;;;7.30;;
68680;SDS011;55836;49.858;6.756;2023-04-06T10:40:20;13.40;;;7.97;;
68680;SDS011;55836;49.858;6.756;2023-04-06T10:42:48;18.17;;;9.47;;
68680;SDS011;55836;49.858;6.756;2023-04-06T10:45:23;15.90;;;8.67;;
68680;SDS011;55836;49.858;6.756;2023-04-06T10:47:53;11.27;;;7.47;;
68680;SDS011;55836;49.858;6.756;2023-04-06T10:50:19;16.57;;;7.97;;
68680;SDS011;55836;49.858;6.756;2023-04-06T10:52:46;13.60;;;8.00;;
68680;SDS011;55836;49.858;6.756;2023-04-06T10:55:16;13.20;;;7.70;;
68680;SDS011;55836;49.858;6.756;2023-04-06T10:57:42;14.20;;;8.07;;
68680;SDS011;55836;49.858;6.756;2023-04-06T11:00:08;14.40;;;7.97;;
68680;SDS011;55836;49.858;6.756;2023-04-06T11:02:35;21.43;;;10.67;;
68680;SDS011;55836;49.858;6.756;2023-04-06T11:05:02;16.30;;;8.73;;
68680;SDS011;55836;49.858;6.756;2023-04-06T11:07:29;16.50;;;9.60;;
68680;SDS011;55836;49.858;6.756;2023-04-06T11:09:55;13.30;;;7.50;;
68680;SDS011;55836;49.858;6.756;2023-04-06T11:12:25;15.10;;;8.23;;
68680;SDS011;55836;49.858;6.756;2023-04-06T11:14:58;12.40;;;8.27;;
68680;SDS011;55836;49.858;6.756;2023-04-06T11:17:32;10.77;;;6.70;;
68680;SDS011;55836;49.858;6.756;2023-04-06T11:19:58;16.07;;;8.83;;
68680;SDS011;55836;49.858;6.756;2023-04-06T11:22:25;11.77;;;7.93;;
68680;SDS011;55836;49.858;6.756;2023-04-06T11:24:51;13.17;;;8.07;;
68680;SDS011;55836;49.858;6.756;2023-04-06T11:27:18;11.90;;;8.23;;
68680;SDS011;55836;49.858;6.756;2023-04-06T11:29:45;14.10;;;8.20;;
68680;SDS011;55836;49.858;6.756;2023-04-06T11:32:11;11.63;;;8.23;;
68680;SDS011;55836;49.858;6.756;2023-04-06T11:34:45;14.50;;;8.30;;
68680;SDS011;55836;49.858;6.756;2023-04-06T11:37:12;15.13;;;8.17;;
68680;SDS011;55836;49.858;6.756;2023-04-06T11:39:39;11.40;;;7.93;;
68680;SDS011;55836;49.858;6.756;2023-04-06T11:42:05;15.77;;;8.73;;
68680;SDS011;55836;49.858;6.756;2023-04-06T11:44:32;13.83;;;9.17;;
68680;SDS011;55836;49.858;6.756;2023-04-06T11:47:00;14.77;;;8.03;;
68680;SDS011;55836;49.858;6.756;2023-04-06T11:49:26;13.03;;;7.90;;
68680;SDS011;55836;49.858;6.756;2023-04-06T11:51:53;14.90;;;8.70;;
68680;SDS011;55836;49.858;6.756;2023-04-06T11:54:35;16.63;;;8.47;;
68680;SDS011;55836;49.858;6.756;2023-04-06T11:57:02;13.00;;;7.70;;
68680;SDS011;55836;49.858;6.756;2023-04-06T11:59:29;11.00;;;7.82;;
68680;SDS011;55836;49.858;6.756;2023-04-06T12:01:56;13.43;;;8.57;;
68680;SDS011;55836;49.858;6.756;2023-04-06T12:04:22;10.40;;;7.47;;
68680;SDS011;55836;49.858;6.756;2023-04-06T12:06:48;13.27;;;8.47;;
68680;SDS011;55836;49.858;6.756;2023-04-06T12:09:15;11.70;;;8.00;;
68680;SDS011;55836;49.858;6.756;2023-04-06T12:11:42;14.47;;;8.13;;
68680;SDS011;55836;49.858;6.756;2023-04-06T12:14:08;9.83;;;7.13;;
68680;SDS011;55836;49.858;6.756;2023-04-06T12:16:34;13.27;;;7.87;;
68680;SDS011;55836;49.858;6.756;2023-04-06T12:19:00;11.53;;;6.73;;
68680;SDS011;55836;49.858;6.756;2023-04-06T12:21:27;12.83;;;7.47;;
68680;SDS011;55836;49.858;6.756;2023-04-06T12:23:54;9.07;;;7.03;;
68680;SDS011;55836;49.858;6.756;2023-04-06T12:26:20;12.57;;;7.43;;
68680;SDS011;55836;49.858;6.756;2023-04-06T12:28:47;10.47;;;7.30;;
68680;SDS011;55836;49.858;6.756;2023-04-06T12:31:22;9.83;;;7.00;;
68680;SDS011;55836;49.858;6.756;2023-04-06T12:33:50;10.33;;;7.47;;
68680;SDS011;55836;49.858;6.756;2023-04-06T12:36:17;10.93;;;7.30;;
68680;SDS011;55836;49.858;6.756;2023-04-06T12:38:44;10.20;;;7.33;;
68680;SDS011;55836;49.858;6.756;2023-04-06T12:41:11;12.13;;;7.73;;
68680;SDS011;55836;49.858;6.756;2023-04-06T12:43:37;11.00;;;7.27;;
68680;SDS011;55836;49.858;6.756;2023-04-06T12:46:03;11.57;;;7.13;;
68680;SDS011;55836;49.858;6.756;2023-04-06T12:48:30;11.07;;;8.80;;
68680;SDS011;55836;49.858;6.756;2023-04-06T12:53:22;11.47;;;8.07;;
68680;SDS011;55836;49.858;6.756;2023-04-06T12:55:48;9.53;;;6.87;;
68680;SDS011;55836;49.858;6.756;2023-04-06T12:58:15;9.30;;;7.50;;
68680;SDS011;55836;49.858;6.756;2023-04-06T13:00:42;10.30;;;6.60;;
68680;SDS011;55836;49.858;6.756;2023-04-06T13:03:08;11.00;;;6.87;;
68680;SDS011;55836;49.858;6.756;2023-04-06T13:05:34;10.50;;;6.93;;
68680;SDS011;55836;49.858;6.756;2023-04-06T13:08:00;8.80;;;6.20;;
68680;SDS011;55836;49.858;6.756;2023-04-06T13:10:26;8.17;;;5.90;;
68680;SDS011;55836;49.858;6.756;2023-04-06T13:12:52;6.93;;;5.47;;
68680;SDS011;55836;49.858;6.756;2023-04-06T13:15:18;5.87;;;5.17;;
68680;SDS011;55836;49.858;6.756;2023-04-06T13:17:45;7.70;;;5.43;;
68680;SDS011;55836;49.858;6.756;2023-04-06T13:20:11;8.20;;;5.50;;
68680;SDS011;55836;49.858;6.756;2023-04-06T13:22:37;9.00;;;5.87;;
68680;SDS011;55836;49.858;6.756;2023-04-06T13:25:03;8.53;;;6.60;;
68680;SDS011;55836;49.858;6.756;2023-04-06T13:27:30;12.73;;;6.77;;
68680;SDS011;55836;49.858;6.756;2023-04-06T13:29:58;9.13;;;7.00;;
68680;SDS011;55836;49.858;6.756;2023-04-06T13:32:25;9.73;;;6.60;;
68680;SDS011;55836;49.858;6.756;2023-04-06T13:34:53;9.33;;;7.17;;
68680;SDS011;55836;49.858;6.756;2023-04-06T13:37:20;10.47;;;7.67;;
68680;SDS011;55836;49.858;6.756;2023-04-06T13:39:46;10.17;;;6.83;;
68680;SDS011;55836;49.858;6.756;2023-04-06T13:42:12;10.57;;;7.10;;
68680;SDS011;55836;49.858;6.756;2023-04-06T13:44:38;8.83;;;7.07;;
68680;SDS011;55836;49.858;6.756;2023-04-06T13:47:04;12.30;;;7.97;;
68680;SDS011;55836;49.858;6.756;2023-04-06T13:49:30;10.60;;;7.70;;
68680;SDS011;55836;49.858;6.756;2023-04-06T13:51:57;12.07;;;7.33;;
68680;SDS011;55836;49.858;6.756;2023-04-06T13:54:23;11.47;;;7.77;;
68680;SDS011;55836;49.858;6.756;2023-04-06T13:56:49;8.90;;;6.77;;
68680;SDS011;55836;49.858;6.756;2023-04-06T13:59:17;9.70;;;7.50;;
68680;SDS011;55836;49.858;6.756;2023-04-06T14:01:43;9.23;;;7.40;;
68680;SDS011;55836;49.858;6.756;2023-04-06T14:04:09;9.23;;;7.00;;
68680;SDS011;55836;49.858;6.756;2023-04-06T14:06:35;12.57;;;7.57;;
68680;SDS011;55836;49.858;6.756;2023-04-06T14:09:01;10.33;;;7.13;;
68680;SDS011;55836;49.858;6.756;2023-04-06T14:11:27;9.50;;;7.47;;
68680;SDS011;55836;49.858;6.756;2023-04-06T14:13:53;11.50;;;7.67;;
68680;SDS011;55836;49.858;6.756;2023-04-06T14:16:20;11.77;;;7.53;;
68680;SDS011;55836;49.858;6.756;2023-04-06T14:18:47;11.83;;;8.03;;
68680;SDS011;55836;49.858;6.756;2023-04-06T14:21:13;10.50;;;8.67;;
68680;SDS011;55836;49.858;6.756;2023-04-06T14:23:40;11.07;;;7.90;;
68680;SDS011;55836;49.858;6.756;2023-04-06T14:26:06;9.33;;;7.87;;
68680;SDS011;55836;49.858;6.756;2023-04-06T14:28:33;11.00;;;8.33;;
68680;SDS011;55836;49.858;6.756;2023-04-06T14:31:00;10.33;;;7.53;;
68680;SDS011;55836;49.858;6.756;2023-04-06T14:33:27;9.67;;;7.80;;
68680;SDS011;55836;49.858;6.756;2023-04-06T14:35:53;11.53;;;7.07;;
68680;SDS011;55836;49.858;6.756;2023-04-06T14:38:19;11.47;;;7.63;;
68680;SDS011;55836;49.858;6.756;2023-04-06T14:40:45;14.03;;;8.63;;
68680;SDS011;55836;49.858;6.756;2023-04-06T14:43:11;9.83;;;8.00;;
68680;SDS011;55836;49.858;6.756;2023-04-06T14:45:37;10.47;;;8.17;;
68680;SDS011;55836;49.858;6.756;2023-04-06T14:48:04;12.60;;;9.77;;